Time;durP1;ratioP1;P1;durP2;ratioP2;P2;SDS_P1;SDS_P2;PMS_P1;PMS_P2;Temp;Humidity;BMP_temperature;BMP_pressure;BME280_temperature;BME280_humidity;BME280_pressure;Samples;Min_cycle;Max_cycle;Signal;HPM_P1;HPM_P2
2022/01/24 00:01:42;;;;;;;;;;;7.00;99.90;;;;;;5026592;28;19921;-70
2022/01/24 00:04:08;;;;;;;;;;;7.00;99.90;;;;;;5028953;28;20349;-69
2022/01/24 00:06:34;;;;;;;;;;;7.00;99.90;;;;;;5029319;28;20198;-70
2022/01/24 00:09:00;;;;;;;;;;;7.00;99.90;;;;;;5009888;28;19996;-69
2022/01/24 00:11:37;;;;;;;;;;;7.00;99.90;;;;;;5035334;28;20654;-72
2022/01/24 00:27:09;;;;;;;;;;;6.50;99.90;;;;;;5050700;28;19951;-71
2022/01/24 00:29:35;;;;;;;;;;;6.40;99.90;;;;;;5032940;28;19913;-70
2022/01/24 00:32:00;;;;;;;;;;;6.50;99.90;;;;;;5029151;28;19909;-70
2022/01/24 00:34:26;;;;;;;;;;;6.60;99.90;;;;;;5030719;28;19915;-70
2022/01/24 00:36:52;;;;;;;;;;;6.70;99.90;;;;;;5029461;28;19948;-68
2022/01/24 00:39:18;;;;;;;;;;;6.80;99.90;;;;;;5011891;28;20313;-68
2022/01/24 00:47:04;;;;;;;;;;;6.70;99.90;;;;;;5046528;28;20070;-70
2022/01/24 00:54:47;;;;;;;;;;;6.50;99.90;;;;;;5035513;28;19958;-71
2022/01/24 00:57:13;;;;;;;;;;;6.50;99.90;;;;;;5023410;28;19955;-71
2022/01/24 00:59:39;;;;;;;;;;;6.50;99.90;;;;;;5024402;28;19984;-70
2022/01/24 01:02:05;;;;;;;;;;;6.40;99.90;;;;;;5025690;28;20048;-70
2022/01/24 01:05:14;;;;;;;;;;;6.30;99.90;;;;;;5026900;28;19978;-70
2022/01/24 01:18:21;;;;;;;;;;;6.50;99.90;;;;;;5028184;28;20165;-70
2022/01/24 01:23:33;;;;;;;;;;;6.50;99.90;;;;;;5004717;28;19913;-71
2022/01/24 01:26:01;;;;;;;;;;;6.50;99.90;;;;;;5028064;28;19909;-68
2022/01/24 01:28:28;;;;;;;;;;;6.50;99.90;;;;;;5038926;28;19954;-68
2022/01/24 01:30:58;;;;;;;;;;;6.70;99.90;;;;;;5013961;28;19917;-70
2022/01/24 01:57:15;;;;;;;;;;;6.60;99.90;;;;;;5026947;28;20330;-70
2022/01/24 01:59:40;;;;;;;;;;;6.50;99.90;;;;;;5025549;28;19944;-70
2022/01/24 02:02:06;;;;;;;;;;;6.40;99.90;;;;;;5014454;28;19955;-71
2022/01/24 02:04:31;;;;;;;;;;;6.40;99.90;;;;;;5033848;28;19917;-72
2022/01/24 02:06:57;;;;;;;;;;;6.40;99.90;;;;;;5030280;28;19909;-68
2022/01/24 02:09:28;;;;;;;;;;;6.40;99.90;;;;;;5010204;28;20486;-70
2022/01/24 02:11:53;;;;;;;;;;;6.30;99.90;;;;;;5028518;28;19909;-70
2022/01/24 02:14:21;;;;;;;;;;;6.30;99.90;;;;;;5028119;28;19919;-70
2022/01/24 02:16:52;;;;;;;;;;;6.30;99.90;;;;;;5028371;28;19962;-72
2022/01/24 02:22:17;;;;;;;;;;;6.30;99.90;;;;;;5028707;28;19913;-69
2022/01/24 02:24:53;;;;;;;;;;;6.30;99.90;;;;;;5028742;28;20053;-70
2022/01/24 02:27:19;;;;;;;;;;;6.30;99.90;;;;;;5026937;28;20325;-71
2022/01/24 02:30:10;;;;;;;;;;;6.30;99.90;;;;;;5028567;28;19913;-69
2022/01/24 02:32:37;;;;;;;;;;;6.40;99.90;;;;;;5010048;28;19913;-71
2022/01/24 02:35:03;;;;;;;;;;;6.40;99.90;;;;;;5041063;28;19975;-70
2022/01/24 02:37:28;;;;;;;;;;;6.30;99.90;;;;;;5027489;28;20461;-71
2022/01/24 02:53:18;;;;;;;;;;;6.60;99.90;;;;;;5028948;28;20384;-72
2022/01/24 02:55:44;;;;;;;;;;;6.70;99.90;;;;;;5028498;28;20426;-70
2022/01/24 02:58:09;;;;;;;;;;;6.50;99.90;;;;;;5028845;28;19910;-71
2022/01/24 03:00:36;;;;;;;;;;;6.40;99.90;;;;;;5027965;28;20001;-72
2022/01/24 03:03:03;;;;;;;;;;;6.30;99.90;;;;;;5026478;28;19960;-68
2022/01/24 03:05:29;;;;;;;;;;;6.30;99.90;;;;;;5026708;28;19948;-68
2022/01/24 03:07:54;;;;;;;;;;;6.30;99.90;;;;;;5041158;28;20043;-70
2022/01/24 03:10:41;;;;;;;;;;;6.20;99.90;;;;;;5026971;28;20417;-70
2022/01/24 03:15:45;;;;;;;;;;;6.20;99.90;;;;;;5041887;28;20217;-70
2022/01/24 03:18:11;;;;;;;;;;;6.20;99.90;;;;;;5031312;28;19909;-70
2022/01/24 03:20:37;;;;;;;;;;;6.30;99.90;;;;;;5029115;28;19932;-70
2022/01/24 03:23:03;;;;;;;;;;;6.20;99.90;;;;;;5039314;28;19913;-71
2022/01/24 03:25:29;;;;;;;;;;;6.20;99.90;;;;;;5041467;28;19995;-70
2022/01/24 03:27:55;;;;;;;;;;;6.30;99.90;;;;;;5040426;28;19909;-69
2022/01/24 03:30:21;;;;;;;;;;;6.30;99.90;;;;;;5042526;28;19917;-71
2022/01/24 03:32:46;;;;;;;;;;;6.30;99.90;;;;;;5030456;28;19948;-70
2022/01/24 03:35:11;;;;;;;;;;;6.40;99.90;;;;;;5028971;28;19924;-69
2022/01/24 03:37:39;;;;;;;;;;;6.30;99.90;;;;;;5025872;28;22512;-69
2022/01/24 03:40:05;;;;;;;;;;;6.30;99.90;;;;;;5024176;28;20227;-70
2022/01/24 03:42:30;;;;;;;;;;;6.30;99.90;;;;;;5021853;28;19917;-71
2022/01/24 03:44:59;;;;;;;;;;;6.30;99.90;;;;;;5031464;28;19917;-71
2022/01/24 03:50:00;;;;;;;;;;;6.30;99.90;;;;;;5031938;28;19909;-70
2022/01/24 03:52:26;;;;;;;;;;;6.40;99.90;;;;;;5029263;28;20185;-70
2022/01/24 03:54:52;;;;;;;;;;;6.40;99.90;;;;;;5009570;28;20059;-70
2022/01/24 03:57:19;;;;;;;;;;;6.40;99.90;;;;;;5029087;28;19909;-70
2022/01/24 03:59:45;;;;;;;;;;;6.30;99.90;;;;;;5010820;28;19913;-70
2022/01/24 04:02:11;;;;;;;;;;;6.30;99.90;;;;;;5010812;28;20359;-69
2022/01/24 04:04:36;;;;;;;;;;;6.10;99.90;;;;;;5027275;28;20363;-69
2022/01/24 04:07:02;;;;;;;;;;;6.00;99.90;;;;;;5027076;28;19913;-72
2022/01/24 04:09:28;;;;;;;;;;;6.00;99.90;;;;;;5010505;28;19972;-69
2022/01/24 04:11:56;;;;;;;;;;;6.00;99.90;;;;;;5027588;28;19959;-70
2022/01/24 04:14:54;;;;;;;;;;;6.00;99.90;;;;;;5026089;28;20012;-70
2022/01/24 04:22:09;;;;;;;;;;;6.20;99.90;;;;;;5039024;28;19908;-71
2022/01/24 04:24:35;;;;;;;;;;;6.10;99.90;;;;;;5035930;28;20267;-70
2022/01/24 04:27:00;;;;;;;;;;;6.10;99.90;;;;;;5028423;28;19952;-70
2022/01/24 04:29:26;;;;;;;;;;;6.00;99.90;;;;;;5028367;28;19920;-69
2022/01/24 04:31:51;;;;;;;;;;;5.90;99.90;;;;;;5049574;28;20484;-71
2022/01/24 04:34:17;;;;;;;;;;;6.00;99.90;;;;;;5021455;28;19910;-70
2022/01/24 04:36:42;;;;;;;;;;;6.10;99.90;;;;;;5017225;28;20535;-70
2022/01/24 04:39:08;;;;;;;;;;;6.10;99.90;;;;;;4999167;28;19913;-69
2022/01/24 04:41:37;;;;;;;;;;;6.10;99.90;;;;;;5011692;28;19971;-72
2022/01/24 04:54:42;;;;;;;;;;;6.00;99.90;;;;;;5020990;28;20286;-71
2022/01/24 04:57:10;;;;;;;;;;;6.00;99.90;;;;;;5024058;28;19917;-70
2022/01/24 04:59:36;;;;;;;;;;;6.10;99.90;;;;;;5022941;28;19955;-70
2022/01/24 05:02:02;;;;;;;;;;;6.20;99.90;;;;;;5014290;28;19961;-69
2022/01/24 05:04:27;;;;;;;;;;;6.20;99.90;;;;;;5013354;28;19913;-72
2022/01/24 05:06:53;;;;;;;;;;;6.20;99.90;;;;;;5019319;28;20062;-70
2022/01/24 05:09:20;;;;;;;;;;;6.20;99.90;;;;;;5016643;28;19913;-71
2022/01/24 05:11:54;;;;;;;;;;;6.10;99.90;;;;;;5017344;28;19916;-70
2022/01/24 05:25:18;;;;;;;;;;;5.90;99.90;;;;;;5012305;28;19919;-69
2022/01/24 05:27:44;;;;;;;;;;;6.00;99.90;;;;;;5021966;28;19932;-70
2022/01/24 05:30:10;;;;;;;;;;;6.00;99.90;;;;;;5025597;28;20341;-70
2022/01/24 05:32:35;;;;;;;;;;;5.90;99.90;;;;;;5032994;28;19917;-72
2022/01/24 05:35:01;;;;;;;;;;;5.90;99.90;;;;;;5026797;28;19909;-71
2022/01/24 05:37:26;;;;;;;;;;;5.90;99.90;;;;;;5025121;28;19917;-69
2022/01/24 05:39:52;;;;;;;;;;;5.90;99.90;;;;;;5028051;28;19920;-70
2022/01/24 05:42:21;;;;;;;;;;;5.90;99.90;;;;;;5027989;28;19968;-73
2022/01/24 05:44:47;;;;;;;;;;;6.00;99.90;;;;;;5030979;28;20338;-70
2022/01/24 05:47:12;;;;;;;;;;;6.00;99.90;;;;;;5034867;28;19924;-71
2022/01/24 05:49:38;;;;;;;;;;;5.80;99.90;;;;;;5030386;28;20324;-69
2022/01/24 05:52:09;;;;;;;;;;;5.90;99.90;;;;;;5036534;28;19996;-69
2022/01/24 05:54:35;;;;;;;;;;;5.80;99.90;;;;;;5017272;28;19992;-69
2022/01/24 05:57:01;;;;;;;;;;;5.80;99.90;;;;;;5028147;28;19909;-70
2022/01/24 05:59:26;;;;;;;;;;;5.80;99.90;;;;;;5028245;28;20004;-70
2022/01/24 06:01:51;;;;;;;;;;;5.90;99.90;;;;;;5017245;28;19947;-71
2022/01/24 06:04:17;;;;;;;;;;;5.90;99.90;;;;;;4998550;28;19909;-70
2022/01/24 06:06:42;;;;;;;;;;;5.90;99.90;;;;;;5012633;28;19916;-70
2022/01/24 06:09:08;;;;;;;;;;;5.70;99.90;;;;;;5003192;28;20386;-69
2022/01/24 06:11:33;;;;;;;;;;;5.60;99.90;;;;;;5037684;28;20133;-71
2022/01/24 06:14:01;;;;;;;;;;;5.50;99.90;;;;;;5031750;28;19919;-70
2022/01/24 06:16:27;;;;;;;;;;;5.50;99.90;;;;;;5028929;28;19913;-69
2022/01/24 06:18:52;;;;;;;;;;;5.50;99.90;;;;;;5028350;28;20003;-70
2022/01/24 06:21:18;;;;;;;;;;;5.60;99.90;;;;;;5028212;28;19936;-71
2022/01/24 06:23:43;;;;;;;;;;;5.60;99.90;;;;;;5018216;28;19921;-70
2022/01/24 06:26:10;;;;;;;;;;;5.60;99.90;;;;;;5008195;28;20406;-69
2022/01/24 06:28:36;;;;;;;;;;;5.60;99.90;;;;;;5009557;28;19929;-70
2022/01/24 06:31:01;;;;;;;;;;;5.70;99.90;;;;;;5023503;28;19922;-68
2022/01/24 06:33:27;;;;;;;;;;;5.70;99.90;;;;;;5024813;28;19914;-70
2022/01/24 06:35:52;;;;;;;;;;;5.70;99.90;;;;;;5020832;28;20131;-70
2022/01/24 06:38:18;;;;;;;;;;;5.80;99.90;;;;;;5021757;28;19913;-70
2022/01/24 06:40:43;;;;;;;;;;;5.80;99.90;;;;;;5021089;28;19910;-68
2022/01/24 06:43:09;;;;;;;;;;;5.90;99.90;;;;;;5026428;28;19924;-68
2022/01/24 06:45:34;;;;;;;;;;;5.80;99.90;;;;;;5034192;28;19913;-70
2022/01/24 06:48:00;;;;;;;;;;;5.80;99.90;;;;;;5024110;28;20078;-70
2022/01/24 06:50:25;;;;;;;;;;;5.70;99.90;;;;;;5046368;28;19913;-71
2022/01/24 06:52:51;;;;;;;;;;;5.80;99.90;;;;;;5044870;28;19921;-72
2022/01/24 06:55:16;;;;;;;;;;;5.60;99.90;;;;;;5035344;28;19916;-71
2022/01/24 06:57:42;;;;;;;;;;;5.70;99.90;;;;;;5041326;28;19923;-72
2022/01/24 07:00:08;;;;;;;;;;;5.80;99.90;;;;;;5040577;28;20025;-76
2022/01/24 07:02:33;;;;;;;;;;;5.80;99.90;;;;;;5032415;28;19929;-72
2022/01/24 07:04:59;;;;;;;;;;;5.80;99.90;;;;;;5026613;28;20378;-71
2022/01/24 07:07:24;;;;;;;;;;;5.70;99.90;;;;;;5033925;28;19913;-70
2022/01/24 07:09:50;;;;;;;;;;;5.60;99.90;;;;;;5037124;28;20058;-68
2022/01/24 07:12:15;;;;;;;;;;;5.50;99.90;;;;;;5021616;28;19920;-69
2022/01/24 07:14:42;;;;;;;;;;;5.40;99.90;;;;;;5045974;28;19920;-70
2022/01/24 07:17:17;;;;;;;;;;;5.50;99.90;;;;;;5032212;28;20302;-67
2022/01/24 07:19:43;;;;;;;;;;;5.60;99.90;;;;;;5027290;28;19940;-70
2022/01/24 07:22:09;;;;;;;;;;;5.70;99.90;;;;;;5021059;28;20344;-70
2022/01/24 07:24:34;;;;;;;;;;;5.60;99.90;;;;;;5023063;28;19909;-70
2022/01/24 07:27:00;;;;;;;;;;;5.70;99.90;;;;;;5010276;28;20017;-71
2022/01/24 07:29:26;;;;;;;;;;;5.60;99.90;;;;;;5008343;28;19944;-70
2022/01/24 07:31:52;;;;;;;;;;;5.60;99.90;;;;;;5015072;28;19916;-70
2022/01/24 07:34:17;;;;;;;;;;;5.70;99.90;;;;;;5008698;28;20197;-72
2022/01/24 07:36:43;;;;;;;;;;;5.70;99.90;;;;;;5031559;28;20296;-71
2022/01/24 07:39:09;;;;;;;;;;;5.70;99.90;;;;;;5023574;28;19925;-71
2022/01/24 07:41:42;;;;;;;;;;;5.70;99.90;;;;;;5024979;28;19920;-70
2022/01/24 07:44:07;;;;;;;;;;;5.60;99.90;;;;;;5009909;28;19978;-72
2022/01/24 07:46:34;;;;;;;;;;;5.50;99.90;;;;;;5018511;28;19914;-70
2022/01/24 07:49:03;;;;;;;;;;;5.60;99.90;;;;;;5029895;28;20472;-70
2022/01/24 07:51:29;;;;;;;;;;;5.60;99.90;;;;;;5034384;28;19920;-70
2022/01/24 07:53:54;;;;;;;;;;;5.50;99.90;;;;;;5011257;28;20342;-72
2022/01/24 07:56:20;;;;;;;;;;;5.40;99.90;;;;;;5029676;28;19940;-72
2022/01/24 07:58:45;;;;;;;;;;;5.40;99.90;;;;;;5024294;28;20266;-70
2022/01/24 08:01:11;;;;;;;;;;;5.40;99.90;;;;;;5024245;28;20041;-70
2022/01/24 08:03:38;;;;;;;;;;;5.40;99.90;;;;;;5025769;28;20329;-71
2022/01/24 08:06:03;;;;;;;;;;;5.30;99.90;;;;;;5025497;28;19909;-70
2022/01/24 08:08:29;;;;;;;;;;;5.30;99.90;;;;;;5023590;28;19919;-71
2022/01/24 08:10:54;;;;;;;;;;;5.40;99.90;;;;;;5023680;28;20382;-72
2022/01/24 08:13:20;;;;;;;;;;;5.60;99.90;;;;;;5014816;28;20024;-69
2022/01/24 08:15:46;;;;;;;;;;;5.60;99.90;;;;;;5022258;28;19913;-69
2022/01/24 08:18:12;;;;;;;;;;;5.60;99.90;;;;;;5034821;28;19913;-70
2022/01/24 08:20:37;;;;;;;;;;;5.40;99.90;;;;;;5008723;28;20402;-70
2022/01/24 08:23:03;;;;;;;;;;;5.30;99.90;;;;;;5029285;28;19910;-70
2022/01/24 08:25:29;;;;;;;;;;;5.30;99.90;;;;;;5026487;28;20370;-69
2022/01/24 08:27:54;;;;;;;;;;;5.30;99.90;;;;;;5029499;28;19953;-70
2022/01/24 08:30:21;;;;;;;;;;;5.30;99.90;;;;;;5027387;28;19924;-70
2022/01/24 08:32:47;;;;;;;;;;;5.40;99.90;;;;;;5025911;28;19913;-70
2022/01/24 08:35:13;;;;;;;;;;;5.30;99.90;;;;;;5008964;28;19920;-70
2022/01/24 08:37:39;;;;;;;;;;;5.30;99.90;;;;;;5008514;28;20394;-69
2022/01/24 08:40:08;;;;;;;;;;;5.40;99.90;;;;;;5007286;28;19909;-71
2022/01/24 08:42:41;;;;;;;;;;;5.40;99.90;;;;;;5013029;28;19917;-70
2022/01/24 08:47:35;;;;;;;;;;;5.50;99.90;;;;;;5024002;28;20187;-71
2022/01/24 08:50:01;;;;;;;;;;;5.50;99.90;;;;;;5024511;28;20369;-69
2022/01/24 08:52:26;;;;;;;;;;;5.60;99.90;;;;;;5026231;28;20195;-70
2022/01/24 08:54:52;;;;;;;;;;;5.50;99.90;;;;;;5026125;28;19920;-70
2022/01/24 08:57:25;;;;;;;;;;;5.40;99.90;;;;;;5032592;28;19932;-69
2022/01/24 08:59:51;;;;;;;;;;;5.30;99.90;;;;;;5007348;28;20502;-70
2022/01/24 09:02:17;;;;;;;;;;;5.30;99.90;;;;;;5037051;28;19917;-72
2022/01/24 09:04:42;;;;;;;;;;;5.30;99.90;;;;;;5036608;28;20079;-72
2022/01/24 09:07:09;;;;;;;;;;;5.20;99.90;;;;;;5042356;28;19913;-69
2022/01/24 09:09:35;;;;;;;;;;;5.20;99.90;;;;;;5051692;28;19917;-67
2022/01/24 09:12:01;;;;;;;;;;;5.30;99.90;;;;;;5037846;28;19971;-69
2022/01/24 09:14:27;;;;;;;;;;;5.30;99.90;;;;;;5007081;28;19917;-71
2022/01/24 09:16:53;;;;;;;;;;;5.30;99.90;;;;;;5040006;28;20128;-72
2022/01/24 09:19:18;;;;;;;;;;;5.20;99.90;;;;;;5022272;28;19959;-70
2022/01/24 09:21:44;;;;;;;;;;;5.20;99.90;;;;;;5022734;28;19959;-69
2022/01/24 09:24:09;;;;;;;;;;;5.30;99.90;;;;;;5022041;28;19917;-71
2022/01/24 09:26:35;;;;;;;;;;;5.40;99.90;;;;;;5016769;28;19920;-68
2022/01/24 09:29:00;;;;;;;;;;;5.50;99.90;;;;;;5011775;28;19978;-72
2022/01/24 09:31:26;;;;;;;;;;;5.50;99.90;;;;;;5018634;28;19947;-72
2022/01/24 09:33:52;;;;;;;;;;;5.50;99.90;;;;;;5006252;28;20640;-70
2022/01/24 09:36:17;;;;;;;;;;;5.60;99.90;;;;;;4991006;28;19909;-71
2022/01/24 09:38:43;;;;;;;;;;;5.50;99.90;;;;;;5006749;28;20447;-70
2022/01/24 09:41:09;;;;;;;;;;;5.60;99.90;;;;;;5019419;28;20020;-71
2022/01/24 09:43:35;;;;;;;;;;;5.60;99.90;;;;;;5028412;28;19924;-68
2022/01/24 09:46:01;;;;;;;;;;;5.50;99.90;;;;;;5016295;28;19909;-71
2022/01/24 09:48:27;;;;;;;;;;;5.40;99.90;;;;;;5032275;28;19992;-72
2022/01/24 09:50:53;;;;;;;;;;;5.30;99.90;;;;;;5021323;28;20001;-71
2022/01/24 09:53:19;;;;;;;;;;;5.40;99.90;;;;;;5019265;28;20291;-72
2022/01/24 09:55:45;;;;;;;;;;;5.30;99.90;;;;;;5018731;28;19909;-70
2022/01/24 09:58:10;;;;;;;;;;;5.30;99.90;;;;;;5023792;28;19909;-72
2022/01/24 10:00:36;;;;;;;;;;;5.30;99.90;;;;;;5013848;28;19920;-73
2022/01/24 10:03:01;;;;;;;;;;;5.50;99.90;;;;;;5022996;28;19932;-70
2022/01/24 10:05:27;;;;;;;;;;;5.50;99.90;;;;;;5014621;28;19914;-74
2022/01/24 10:07:59;;;;;;;;;;;5.50;99.90;;;;;;5030936;28;19932;-72
2022/01/24 10:10:29;;;;;;;;;;;5.40;99.90;;;;;;5012485;28;19967;-72
2022/01/24 10:18:05;;;;;;;;;;;5.20;99.90;;;;;;5026075;28;19962;-74
2022/01/24 10:20:33;;;;;;;;;;;5.20;99.90;;;;;;5022473;28;19943;-73
2022/01/24 10:23:01;;;;;;;;;;;5.20;99.90;;;;;;5022581;28;20445;-71
2022/01/24 10:25:27;;;;;;;;;;;5.20;99.90;;;;;;5023226;28;19913;-71
2022/01/24 10:27:59;;;;;;;;;;;5.30;99.90;;;;;;5026389;28;19924;-75
2022/01/24 10:30:26;;;;;;;;;;;5.40;99.90;;;;;;5026181;28;20063;-71
2022/01/24 10:32:52;;;;;;;;;;;5.50;99.90;;;;;;5026261;28;19913;-70
2022/01/24 10:35:40;;;;;;;;;;;5.70;99.90;;;;;;5025513;28;19931;-68
2022/01/24 10:41:07;;;;;;;;;;;5.30;99.90;;;;;;5013510;28;19952;-71
2022/01/24 10:43:34;;;;;;;;;;;5.20;99.90;;;;;;5027078;28;20003;-69
2022/01/24 10:45:59;;;;;;;;;;;5.20;99.90;;;;;;5023678;28;19935;-71
2022/01/24 10:48:32;;;;;;;;;;;5.10;99.90;;;;;;5043461;28;20384;-71
2022/01/24 10:51:09;;;;;;;;;;;5.30;99.90;;;;;;5033492;28;20101;-71
2022/01/24 10:53:45;;;;;;;;;;;5.50;99.90;;;;;;5049301;28;19909;-71
2022/01/24 10:56:24;;;;;;;;;;;5.70;99.90;;;;;;5031353;28;19924;-70
2022/01/24 10:58:49;;;;;;;;;;;5.80;99.90;;;;;;5030992;28;19910;-69
2022/01/24 11:01:15;;;;;;;;;;;5.70;99.90;;;;;;5029273;28;19924;-72
2022/01/24 11:03:40;;;;;;;;;;;5.70;99.90;;;;;;5033547;28;20349;-73
2022/01/24 11:06:06;;;;;;;;;;;5.70;99.90;;;;;;5029740;28;19913;-73
2022/01/24 11:08:31;;;;;;;;;;;5.80;99.90;;;;;;5025685;28;19921;-71
2022/01/24 11:10:57;;;;;;;;;;;5.70;99.90;;;;;;5016618;28;20385;-68
2022/01/24 11:13:29;;;;;;;;;;;5.60;99.90;;;;;;5023977;28;19913;-73
2022/01/24 11:15:58;;;;;;;;;;;5.60;99.90;;;;;;5025790;28;19909;-73
2022/01/24 11:18:24;;;;;;;;;;;5.70;99.90;;;;;;5017031;28;20433;-71
2022/01/24 11:20:50;;;;;;;;;;;5.80;99.90;;;;;;5011700;28;19913;-70
2022/01/24 11:23:21;;;;;;;;;;;5.50;99.90;;;;;;5004991;28;19936;-69
2022/01/24 11:25:47;;;;;;;;;;;5.50;99.90;;;;;;5024354;28;19933;-70
2022/01/24 11:28:13;;;;;;;;;;;5.60;99.90;;;;;;5023579;28;19917;-73
2022/01/24 11:30:59;;;;;;;;;;;5.60;99.90;;;;;;5016885;28;19924;-71
2022/01/24 11:33:30;;;;;;;;;;;5.80;99.90;;;;;;5031828;28;19909;-71
2022/01/24 11:35:59;;;;;;;;;;;5.90;99.90;;;;;;5024232;28;19951;-71
2022/01/24 11:38:35;;;;;;;;;;;6.00;99.90;;;;;;5015711;28;20326;-72
2022/01/24 11:41:05;;;;;;;;;;;6.00;99.90;;;;;;5022375;28;19925;-70
2022/01/24 11:43:34;;;;;;;;;;;6.00;99.90;;;;;;5026088;28;19924;-70
2022/01/24 11:46:05;;;;;;;;;;;5.80;99.90;;;;;;5025786;28;19909;-70
2022/01/24 11:48:32;;;;;;;;;;;5.70;99.90;;;;;;5023190;28;19920;-70
2022/01/24 11:51:00;;;;;;;;;;;6.00;99.90;;;;;;5031466;28;20001;-69
2022/01/24 11:53:28;;;;;;;;;;;6.10;99.90;;;;;;5019393;28;19920;-72
2022/01/24 11:55:55;;;;;;;;;;;6.00;99.90;;;;;;5023815;28;20329;-69
2022/01/24 11:58:28;;;;;;;;;;;6.00;99.90;;;;;;5017911;28;19913;-71
2022/01/24 12:00:55;;;;;;;;;;;6.00;99.90;;;;;;5023521;28;19913;-69
2022/01/24 12:03:26;;;;;;;;;;;5.70;99.90;;;;;;5021175;28;20373;-72
2022/01/24 12:05:53;;;;;;;;;;;5.60;99.90;;;;;;5017606;28;20020;-71
2022/01/24 12:08:41;;;;;;;;;;;5.40;99.90;;;;;;5029287;28;19971;-71
2022/01/24 12:11:19;;;;;;;;;;;5.40;99.90;;;;;;5031556;28;19916;-70
2022/01/24 12:13:46;;;;;;;;;;;5.70;99.90;;;;;;5028363;28;19909;-71
2022/01/24 12:16:13;;;;;;;;;;;5.60;99.90;;;;;;5027416;28;19972;-72
2022/01/24 12:18:38;;;;;;;;;;;5.50;99.90;;;;;;5030114;28;20221;-72
2022/01/24 12:21:08;;;;;;;;;;;5.70;99.90;;;;;;5036217;28;20098;-69
2022/01/24 12:23:47;;;;;;;;;;;5.80;99.90;;;;;;5047587;28;19920;-70
2022/01/24 12:26:12;;;;;;;;;;;6.00;99.90;;;;;;5034527;28;19921;-71
2022/01/24 12:28:41;;;;;;;;;;;5.70;99.90;;;;;;5028919;28;20174;-70
2022/01/24 12:31:09;;;;;;;;;;;5.50;99.90;;;;;;5031832;28;20317;-71
2022/01/24 12:33:36;;;;;;;;;;;5.30;99.90;;;;;;5032413;28;20366;-70
2022/01/24 12:36:07;;;;;;;;;;;5.40;99.90;;;;;;5030967;28;19909;-72
2022/01/24 12:38:58;;;;;;;;;;;5.40;99.90;;;;;;5031437;28;19913;-72
2022/01/24 12:41:27;;;;;;;;;;;5.50;99.90;;;;;;5019086;28;19940;-73
2022/01/24 12:44:10;;;;;;;;;;;5.50;99.90;;;;;;5021057;28;20287;-73
2022/01/24 12:46:35;;;;;;;;;;;5.50;99.90;;;;;;5002523;28;19913;-73
2022/01/24 12:49:04;;;;;;;;;;;5.30;99.90;;;;;;5026079;28;19931;-71
2022/01/24 12:51:31;;;;;;;;;;;5.20;99.90;;;;;;5007596;28;19993;-72
2022/01/24 12:53:56;;;;;;;;;;;5.30;99.90;;;;;;5020469;28;19914;-72
2022/01/24 12:56:26;;;;;;;;;;;5.40;99.90;;;;;;5031322;28;20015;-70
2022/01/24 12:58:52;;;;;;;;;;;5.50;99.90;;;;;;5031845;28;19982;-71
2022/01/24 13:01:17;;;;;;;;;;;5.80;99.90;;;;;;5024508;28;20063;-73
2022/01/24 13:03:47;;;;;;;;;;;5.80;99.90;;;;;;5023045;28;19918;-69
2022/01/24 13:06:14;;;;;;;;;;;6.00;99.90;;;;;;5021308;28;19921;-71
2022/01/24 13:08:50;;;;;;;;;;;5.80;99.90;;;;;;5029471;28;19917;-72
2022/01/24 13:11:15;;;;;;;;;;;5.60;99.90;;;;;;5017059;28;19914;-72
2022/01/24 13:13:56;;;;;;;;;;;5.60;99.90;;;;;;5014663;28;19998;-71
2022/01/24 13:22:17;;;;;;;;;;;5.70;99.90;;;;;;5014518;28;19980;-71
2022/01/24 13:25:02;;;;;;;;;;;5.70;99.90;;;;;;5026035;28;19959;-72
2022/01/24 13:27:54;;;;;;;;;;;5.90;99.90;;;;;;5016014;28;20182;-70
2022/01/24 13:30:25;;;;;;;;;;;5.70;99.90;;;;;;5018438;28;20066;-75
2022/01/24 13:32:52;;;;;;;;;;;5.80;99.90;;;;;;5020592;28;20378;-72
2022/01/24 13:35:19;;;;;;;;;;;5.90;99.90;;;;;;5018834;28;20207;-71
2022/01/24 13:37:45;;;;;;;;;;;5.80;99.90;;;;;;5020074;28;19916;-71
2022/01/24 13:40:10;;;;;;;;;;;5.60;99.90;;;;;;5018619;28;19996;-70
2022/01/24 13:42:36;;;;;;;;;;;5.50;99.90;;;;;;5007752;28;20096;-70
2022/01/24 13:45:02;;;;;;;;;;;5.40;99.90;;;;;;5015737;28;19977;-70
2022/01/24 13:47:28;;;;;;;;;;;5.40;99.90;;;;;;5000166;28;19960;-70
2022/01/24 13:49:53;;;;;;;;;;;5.40;99.90;;;;;;5017194;28;19964;-74
2022/01/24 13:52:19;;;;;;;;;;;5.30;99.90;;;;;;5019564;28;19910;-71
2022/01/24 13:54:44;;;;;;;;;;;5.20;99.90;;;;;;5028472;28;20389;-72
2022/01/24 13:57:16;;;;;;;;;;;5.30;99.90;;;;;;5024124;28;19910;-70
2022/01/24 13:59:42;;;;;;;;;;;5.40;99.90;;;;;;5024974;28;20730;-68
2022/01/24 14:02:14;;;;;;;;;;;5.40;99.90;;;;;;5021280;28;19975;-70
2022/01/24 14:04:48;;;;;;;;;;;5.50;99.90;;;;;;5031144;28;20401;-69
2022/01/24 14:07:15;;;;;;;;;;;5.50;99.90;;;;;;5011002;28;20371;-73
2022/01/24 14:09:45;;;;;;;;;;;5.40;99.90;;;;;;5025771;28;19948;-71
2022/01/24 14:12:12;;;;;;;;;;;5.30;99.90;;;;;;5021655;28;20385;-72
2022/01/24 14:14:44;;;;;;;;;;;5.30;99.90;;;;;;5028623;28;20381;-71
2022/01/24 14:19:38;;;;;;;;;;;5.20;99.90;;;;;;5031987;28;19916;-69
2022/01/24 14:22:06;;;;;;;;;;;5.20;99.90;;;;;;5028396;28;19914;-71
2022/01/24 14:24:41;;;;;;;;;;;5.30;99.90;;;;;;5033289;28;20359;-70
2022/01/24 14:27:06;;;;;;;;;;;5.40;99.90;;;;;;5038355;28;20328;-71
2022/01/24 14:29:37;;;;;;;;;;;5.40;99.90;;;;;;5050347;28;19931;-70
2022/01/24 14:32:09;;;;;;;;;;;5.60;99.90;;;;;;5049586;28;19994;-73
2022/01/24 14:34:35;;;;;;;;;;;5.40;99.90;;;;;;5013355;28;19940;-72
2022/01/24 14:37:05;;;;;;;;;;;5.30;99.90;;;;;;5031302;28;19963;-70
2022/01/24 14:39:31;;;;;;;;;;;5.30;99.90;;;;;;5030035;28;20016;-70
2022/01/24 14:41:57;;;;;;;;;;;5.20;99.90;;;;;;5031190;28;19971;-70
2022/01/24 14:47:07;;;;;;;;;;;5.40;99.90;;;;;;5039706;28;19940;-72
2022/01/24 14:49:34;;;;;;;;;;;5.30;99.90;;;;;;5029023;28;19917;-72
2022/01/24 14:52:03;;;;;;;;;;;5.30;99.90;;;;;;5039073;28;20498;-72
2022/01/24 14:54:31;;;;;;;;;;;5.40;99.90;;;;;;5033906;28;19909;-73
2022/01/24 14:56:58;;;;;;;;;;;5.40;99.90;;;;;;5019724;28;19910;-71
2022/01/24 14:59:24;;;;;;;;;;;5.40;99.90;;;;;;5048401;28;19924;-69
2022/01/24 15:01:50;;;;;;;;;;;5.50;99.90;;;;;;5039646;28;19960;-70
2022/01/24 15:04:16;;;;;;;;;;;5.50;99.90;;;;;;5033449;28;19909;-72
2022/01/24 15:06:42;;;;;;;;;;;5.40;99.90;;;;;;5031729;28;19933;-71
2022/01/24 15:09:12;;;;;;;;;;;5.40;99.90;;;;;;5033001;28;20270;-71
2022/01/24 15:11:39;;;;;;;;;;;5.50;99.90;;;;;;5033786;28;20012;-71
2022/01/24 15:14:15;;;;;;;;;;;5.60;99.90;;;;;;5031519;28;20118;-72
2022/01/24 15:16:49;;;;;;;;;;;5.50;99.90;;;;;;5035847;28;20020;-72
2022/01/24 15:27:09;;;;;;;;;;;5.40;99.90;;;;;;5024526;28;19958;-70
2022/01/24 15:29:35;;;;;;;;;;;5.40;99.90;;;;;;5005699;28;19936;-69
2022/01/24 15:32:04;;;;;;;;;;;5.30;99.90;;;;;;5015987;28;20532;-69
2022/01/24 15:34:31;;;;;;;;;;;5.40;99.90;;;;;;5020225;28;20366;-72
2022/01/24 15:36:56;;;;;;;;;;;5.30;99.90;;;;;;5017648;28;19913;-71
2022/01/24 15:39:22;;;;;;;;;;;5.30;99.90;;;;;;5033464;28;19920;-72
2022/01/24 15:42:04;;;;;;;;;;;5.30;99.90;;;;;;5033969;28;19918;-75
2022/01/24 15:47:04;;;;;;;;;;;5.20;99.90;;;;;;5024533;28;20000;-72
2022/01/24 15:49:30;;;;;;;;;;;5.20;99.90;;;;;;5038595;28;20156;-75
2022/01/24 15:51:55;;;;;;;;;;;5.40;99.90;;;;;;5034858;28;19912;-73
2022/01/24 15:54:23;;;;;;;;;;;5.30;99.90;;;;;;5050088;28;19920;-76
2022/01/24 15:59:33;;;;;;;;;;;5.40;99.90;;;;;;5036975;28;19919;-75
2022/01/24 16:01:59;;;;;;;;;;;5.40;99.90;;;;;;5005545;28;19981;-73
2022/01/24 16:04:24;;;;;;;;;;;5.40;99.90;;;;;;5025909;28;19968;-73
2022/01/24 16:06:50;;;;;;;;;;;5.40;99.90;;;;;;5026604;28;20008;-74
2022/01/24 16:09:15;;;;;;;;;;;5.20;99.90;;;;;;5016272;28;19917;-75
2022/01/24 16:11:41;;;;;;;;;;;5.20;99.90;;;;;;5029560;28;19917;-73
2022/01/24 16:14:08;;;;;;;;;;;5.20;99.90;;;;;;5016525;28;19909;-73
2022/01/24 16:16:35;;;;;;;;;;;5.30;99.90;;;;;;5035531;28;20001;-73
2022/01/24 16:19:01;;;;;;;;;;;5.40;99.90;;;;;;5014186;28;20080;-72
2022/01/24 16:21:38;;;;;;;;;;;5.40;99.90;;;;;;5019078;28;20127;-70
2022/01/24 16:26:39;;;;;;;;;;;5.20;99.90;;;;;;5028323;28;19943;-70
2022/01/24 16:29:05;;;;;;;;;;;5.10;99.90;;;;;;5015024;28;20246;-72
2022/01/24 16:31:30;;;;;;;;;;;5.10;99.90;;;;;;5017186;28;20231;-72
2022/01/24 16:33:56;;;;;;;;;;;5.10;99.90;;;;;;5030561;28;19912;-71
2022/01/24 16:36:21;;;;;;;;;;;5.10;99.90;;;;;;5030180;28;20263;-73
2022/01/24 16:38:47;;;;;;;;;;;5.30;99.90;;;;;;5021407;28;20370;-72
2022/01/24 16:41:17;;;;;;;;;;;5.30;99.90;;;;;;5027535;28;19921;-73
2022/01/24 16:44:01;;;;;;;;;;;5.40;99.90;;;;;;5024802;28;19924;-74
2022/01/24 16:49:11;;;;;;;;;;;5.20;99.90;;;;;;5018473;28;19928;-72
2022/01/24 16:51:37;;;;;;;;;;;5.20;99.90;;;;;;5021535;28;20215;-72
2022/01/24 16:54:11;;;;;;;;;;;5.20;99.90;;;;;;5024466;28;20390;-72
2022/01/24 16:56:36;;;;;;;;;;;5.30;99.90;;;;;;5023895;28;19924;-70
2022/01/24 16:59:02;;;;;;;;;;;5.30;99.90;;;;;;5010222;28;19921;-72
2022/01/24 17:01:28;;;;;;;;;;;5.20;99.90;;;;;;5009463;28;20113;-71
2022/01/24 17:03:54;;;;;;;;;;;5.20;99.90;;;;;;5015002;28;19953;-70